Time;durP1;ratioP1;P1;durP2;ratioP2;P2;SDS_P1;SDS_P2;PMS_P1;PMS_P2;Temp;Humidity;BMP_temperature;BMP_pressure;BME280_temperature;BME280_humidity;BME280_pressure;Samples;Min_cycle;Max_cycle;Signal;HPM_P1;HPM_P2
2022/01/19 00:02:00;;;;;;;6.20;4.70;;;2.70;99.90;;;;;;5073088;28;20270;-74
2022/01/19 00:04:27;;;;;;;6.57;5.40;;;2.70;99.90;;;;;;5073243;28;20201;-74
2022/01/19 00:06:54;;;;;;;6.87;4.17;;;2.60;99.90;;;;;;5073063;28;20598;-74
2022/01/19 00:09:21;;;;;;;6.80;4.67;;;2.60;99.90;;;;;;5072855;28;20262;-74
2022/01/19 00:11:49;;;;;;;5.83;4.70;;;2.60;99.90;;;;;;5073291;28;20242;-74
2022/01/19 00:14:15;;;;;;;5.97;4.60;;;2.60;99.90;;;;;;5076375;28;20722;-75
2022/01/19 00:16:42;;;;;;;6.67;5.00;;;2.60;99.90;;;;;;5077157;28;20206;-74
2022/01/19 00:19:08;;;;;;;8.27;5.43;;;2.50;99.90;;;;;;5076910;28;20197;-74
2022/01/19 00:21:35;;;;;;;5.27;4.73;;;2.50;99.90;;;;;;5077053;28;20205;-74
2022/01/19 00:24:02;;;;;;;8.57;5.40;;;2.50;99.90;;;;;;5076892;28;20271;-74
2022/01/19 00:26:29;;;;;;;6.63;5.23;;;2.50;99.90;;;;;;5076708;28;20203;-74
2022/01/19 00:28:58;;;;;;;8.53;5.53;;;2.50;99.90;;;;;;5076732;28;20204;-73
2022/01/19 00:31:24;;;;;;;8.43;5.40;;;2.50;99.90;;;;;;5076491;28;20260;-74
2022/01/19 00:33:51;;;;;;;6.63;5.60;;;2.50;99.90;;;;;;5076379;28;20266;-74
2022/01/19 00:36:18;;;;;;;7.00;5.40;;;2.40;99.90;;;;;;5076728;28;20630;-75
2022/01/19 00:38:44;;;;;;;8.23;5.20;;;2.40;99.90;;;;;;5076664;28;20223;-74
2022/01/19 00:41:11;;;;;;;6.83;4.77;;;2.40;99.90;;;;;;5076873;28;20258;-74
2022/01/19 00:43:38;;;;;;;6.33;4.80;;;2.40;99.90;;;;;;5077116;28;20494;-75
2022/01/19 00:46:06;;;;;;;6.83;4.70;;;2.40;99.90;;;;;;5077142;28;20227;-74
2022/01/19 00:48:32;;;;;;;6.00;4.67;;;2.40;99.90;;;;;;5082548;28;20606;-74
2022/01/19 00:51:00;;;;;;;6.67;5.40;;;2.20;99.90;;;;;;5076626;28;20216;-74
2022/01/19 00:53:27;;;;;;;6.43;5.20;;;2.10;99.90;;;;;;5076425;28;20201;-74
2022/01/19 00:55:56;;;;;;;6.63;5.10;;;1.90;99.90;;;;;;5076914;28;20197;-74
2022/01/19 00:58:23;;;;;;;9.50;5.00;;;1.70;99.90;;;;;;5076136;28;20197;-74
2022/01/19 01:00:50;;;;;;;5.93;4.83;;;1.60;99.90;;;;;;5076182;28;20767;-74
2022/01/19 01:03:18;;;;;;;10.50;5.70;;;1.50;99.90;;;;;;5075639;28;20224;-74
2022/01/19 01:05:45;;;;;;;8.40;5.40;;;1.40;99.90;;;;;;5075598;28;20197;-74
2022/01/19 01:08:11;;;;;;;9.23;5.70;;;1.30;99.90;;;;;;5075313;28;20232;-74
2022/01/19 01:10:42;;;;;;;8.97;5.80;;;1.20;99.90;;;;;;5075620;28;20247;-74
2022/01/19 01:13:22;;;;;;;12.87;6.17;;;1.10;99.90;;;;;;5075884;28;20215;-74
2022/01/19 01:16:00;;;;;;;7.57;5.90;;;1.00;99.90;;;;;;5075318;28;20233;-74
2022/01/19 01:18:29;;;;;;;6.50;5.80;;;0.80;99.90;;;;;;5075420;28;20552;-74
2022/01/19 01:20:58;;;;;;;6.63;5.40;;;0.80;99.90;;;;;;5075633;28;20200;-75
2022/01/19 01:23:27;;;;;;;9.93;6.67;;;0.70;99.90;;;;;;5074946;28;20208;-74
2022/01/19 01:25:54;;;;;;;9.37;6.20;;;0.60;99.90;;;;;;5074741;28;20201;-75
2022/01/19 01:28:21;;;;;;;11.10;6.80;;;0.50;99.90;;;;;;5075583;28;20197;-74
2022/01/19 01:30:48;;;;;;;10.13;7.00;;;0.40;99.90;;;;;;5075214;28;20622;-74
2022/01/19 01:33:15;;;;;;;9.33;7.00;;;0.20;99.90;;;;;;5075447;28;20192;-74
2022/01/19 01:35:43;;;;;;;9.70;6.93;;;0.10;99.90;;;;;;5075804;28;20266;-74
2022/01/19 01:38:10;;;;;;;11.13;7.03;;;0.00;99.90;;;;;;5075856;28;20193;-74
2022/01/19 01:40:38;;;;;;;10.53;7.07;;;-0.20;99.90;;;;;;5079465;28;20201;-74
2022/01/19 01:43:08;;;;;;;12.53;7.37;;;-0.20;99.90;;;;;;5084010;28;20193;-74
2022/01/19 01:45:38;;;;;;;8.33;6.47;;;-0.10;99.90;;;;;;5083754;28;20193;-75
2022/01/19 01:48:09;;;;;;;13.47;7.70;;;-0.30;99.90;;;;;;5080919;28;20211;-75
2022/01/19 01:53:27;;;;;;;13.43;7.60;;;-0.60;99.90;;;;;;5083105;28;20567;-75
2022/01/19 01:55:56;;;;;;;10.93;7.70;;;-0.70;99.90;;;;;;5078859;28;20201;-74
2022/01/19 01:58:23;;;;;;;12.27;7.23;;;-0.80;99.90;;;;;;5076156;28;20219;-74
2022/01/19 02:00:50;;;;;;;16.27;8.50;;;-0.90;99.90;;;;;;5075661;28;20201;-75
2022/01/19 02:03:17;;;;;;;12.63;7.87;;;-1.00;99.90;;;;;;5074740;28;20193;-75
2022/01/19 02:05:59;;;;;;;11.33;8.83;;;-1.00;99.90;;;;;;5075347;28;20201;-75
2022/01/19 02:08:36;;;;;;;13.57;9.27;;;-1.00;99.90;;;;;;5075507;28;20196;-74
2022/01/19 02:11:18;;;;;;;15.80;9.17;;;-1.10;99.90;;;;;;5076145;28;20231;-74
2022/01/19 02:16:39;;;;;;;12.20;8.07;;;-1.20;99.90;;;;;;5076191;28;20239;-74
2022/01/19 02:21:59;;;;;;;11.40;7.90;;;-1.20;99.90;;;;;;5075581;28;20200;-74
2022/01/19 02:24:30;;;;;;;12.03;7.87;;;-1.30;99.90;;;;;;5075794;28;20196;-74
2022/01/19 02:27:05;;;;;;;11.73;7.73;;;-1.40;99.90;;;;;;5076065;28;20215;-74
2022/01/19 02:40:38;;;;;;;11.93;7.87;;;-1.40;99.90;;;;;;5076492;28;20212;-75
2022/01/19 02:43:19;;;;;;;16.43;8.03;;;-1.40;99.90;;;;;;5077378;28;20204;-74
2022/01/19 02:51:14;;;;;;;11.77;7.40;;;-1.40;99.90;;;;;;5075040;28;20227;-74
2022/01/19 02:53:42;;;;;;;9.87;7.57;;;-1.50;99.90;;;;;;5074779;28;20201;-74
2022/01/19 02:56:18;;;;;;;12.50;7.93;;;-1.70;99.90;;;;;;5074466;28;20205;-74
2022/01/19 02:58:46;;;;;;;10.10;7.03;;;-1.80;99.90;;;;;;5074225;28;20192;-74
2022/01/19 03:09:27;;;;;;;15.73;8.33;;;-1.90;99.90;;;;;;5073651;28;20330;-73
2022/01/19 03:11:54;;;;;;;12.90;7.83;;;-1.90;99.90;;;;;;5055548;28;20270;-73
2022/01/19 03:14:21;;;;;;;14.53;8.27;;;-1.90;99.90;;;;;;5073994;28;20672;-74
2022/01/19 03:16:48;;;;;;;16.60;9.63;;;-2.00;99.90;;;;;;5074338;28;20671;-74
2022/01/19 03:19:16;;;;;;;14.77;9.80;;;-1.90;99.90;;;;;;5074423;28;20239;-73
2022/01/19 03:21:43;;;;;;;18.83;11.13;;;-1.80;99.90;;;;;;5074364;28;20629;-73
2022/01/19 03:24:11;;;;;;;20.93;10.60;;;-1.90;99.90;;;;;;5074585;28;20284;-74
2022/01/19 03:26:39;;;;;;;15.00;9.40;;;-2.00;99.90;;;;;;5074631;28;20232;-74
2022/01/19 03:29:06;;;;;;;17.67;9.67;;;-2.10;99.90;;;;;;5074907;28;20197;-74
2022/01/19 03:31:33;;;;;;;18.00;9.27;;;-2.10;99.90;;;;;;5076983;28;20224;-73
2022/01/19 03:34:00;;;;;;;17.40;9.50;;;-2.10;99.90;;;;;;5075423;28;20664;-74
2022/01/19 03:36:27;;;;;;;15.70;9.97;;;-2.10;99.90;;;;;;5075577;28;20205;-74
2022/01/19 03:38:53;;;;;;;13.70;9.90;;;-2.20;99.90;;;;;;5074487;28;20229;-75
2022/01/19 03:41:20;;;;;;;17.70;10.17;;;-2.20;99.90;;;;;;5075025;28;20341;-74
2022/01/19 03:43:48;;;;;;;16.63;9.77;;;-2.30;99.90;;;;;;5075454;28;20193;-73
2022/01/19 03:46:16;;;;;;;18.37;9.80;;;-2.30;99.90;;;;;;5075416;28;20197;-74
2022/01/19 03:48:51;;;;;;;16.57;9.73;;;-2.20;99.90;;;;;;5076661;28;20249;-74
2022/01/19 03:51:18;;;;;;;19.33;10.10;;;-2.30;99.90;;;;;;5077276;28;20572;-74
2022/01/19 03:53:45;;;;;;;19.70;10.03;;;-2.30;99.90;;;;;;5077266;28;20258;-73
2022/01/19 03:56:12;;;;;;;18.27;10.63;;;-2.30;99.90;;;;;;5077080;28;20664;-74
2022/01/19 03:58:39;;;;;;;18.93;10.90;;;-2.20;99.90;;;;;;5077382;28;20204;-74
2022/01/19 04:01:07;;;;;;;25.70;11.27;;;-2.20;99.90;;;;;;5059581;28;20243;-74
2022/01/19 04:03:57;;;;;;;15.83;10.60;;;-2.20;99.90;;;;;;5077243;28;20197;-74
2022/01/19 04:06:27;;;;;;;19.87;11.33;;;-2.00;99.90;;;;;;5077773;28;20280;-74
2022/01/19 04:08:54;;;;;;;18.30;10.73;;;-1.90;99.90;;;;;;5077767;28;20222;-74
2022/01/19 04:11:22;;;;;;;17.10;10.50;;;-1.80;99.90;;;;;;5077879;28;20220;-74
2022/01/19 04:14:21;;;;;;;21.53;10.63;;;-2.00;99.90;;;;;;5078774;28;20225;-74
2022/01/19 04:16:48;;;;;;;17.90;10.00;;;-2.10;99.90;;;;;;5078237;28;20656;-74
2022/01/19 04:19:23;;;;;;;17.63;10.33;;;-2.20;99.90;;;;;;5078788;28;20223;-74
2022/01/19 04:21:51;;;;;;;19.73;10.20;;;-2.30;99.90;;;;;;5078820;28;20243;-75
2022/01/19 04:24:18;;;;;;;15.73;10.37;;;-2.30;99.90;;;;;;5078517;28;20206;-74
2022/01/19 04:26:46;;;;;;;17.13;10.17;;;-2.50;99.90;;;;;;5082076;28;20197;-74
2022/01/19 04:29:13;;;;;;;17.00;10.93;;;-2.50;99.90;;;;;;5079625;28;20594;-74
2022/01/19 04:31:40;;;;;;;19.73;10.83;;;-2.60;99.90;;;;;;5077868;28;20224;-74
2022/01/19 04:34:12;;;;;;;16.23;10.43;;;-2.60;99.90;;;;;;5078330;28;20212;-74
2022/01/19 04:37:09;;;;;;;16.83;10.03;;;-2.60;99.90;;;;;;5078395;28;20195;-74
2022/01/19 04:45:21;;;;;;;17.70;9.93;;;-2.50;99.90;;;;;;5078235;28;20199;-74
2022/01/19 05:01:48;;;;;;;19.53;10.67;;;-2.60;99.90;;;;;;5075746;28;20573;-74
2022/01/19 05:04:28;;;;;;;20.00;11.10;;;-2.50;99.90;;;;;;5076108;28;20201;-74
2022/01/19 05:07:08;;;;;;;23.33;11.20;;;-2.50;99.90;;;;;;5075629;28;20199;-74
2022/01/19 05:09:58;;;;;;;19.90;10.97;;;-2.60;99.90;;;;;;5075592;28;20201;-74
2022/01/19 05:15:10;;;;;;;23.83;13.57;;;-2.50;99.90;;;;;;5075465;28;20235;-74
2022/01/19 05:17:37;;;;;;;18.60;12.30;;;-2.50;99.90;;;;;;5075388;28;20210;-74
2022/01/19 05:20:04;;;;;;;27.00;14.03;;;-2.60;99.90;;;;;;5075281;28;20243;-74
2022/01/19 05:22:32;;;;;;;27.70;14.83;;;-2.50;99.90;;;;;;5080026;28;20210;-74
2022/01/19 05:24:59;;;;;;;29.57;14.63;;;-2.50;99.90;;;;;;5075575;28;20253;-74
2022/01/19 05:27:26;;;;;;;25.50;14.63;;;-2.40;99.90;;;;;;5075657;28;20258;-74
2022/01/19 05:29:53;;;;;;;29.00;14.80;;;-2.40;99.90;;;;;;5075034;28;20200;-74
2022/01/19 05:32:19;;;;;;;24.60;14.47;;;-2.40;99.90;;;;;;5075043;28;20231;-74
2022/01/19 05:34:46;;;;;;;25.70;15.13;;;-2.50;99.90;;;;;;5075053;28;20201;-74
2022/01/19 05:37:13;;;;;;;24.97;15.30;;;-2.50;99.90;;;;;;5075237;28;20253;-74
2022/01/19 05:39:41;;;;;;;26.07;14.60;;;-2.50;99.90;;;;;;5075698;28;20196;-74
2022/01/19 05:42:13;;;;;;;26.80;14.30;;;-2.40;99.90;;;;;;5075499;28;20249;-74
2022/01/19 05:44:41;;;;;;;28.37;13.97;;;-2.40;99.90;;;;;;5075286;28;20203;-74
2022/01/19 05:47:07;;;;;;;22.53;13.83;;;-2.40;99.90;;;;;;5075209;28;20195;-74
2022/01/19 05:49:34;;;;;;;26.87;14.57;;;-2.50;99.90;;;;;;5075328;28;20209;-73
2022/01/19 05:52:01;;;;;;;27.43;14.13;;;-2.60;99.90;;;;;;5075400;28;20239;-75
2022/01/19 05:54:27;;;;;;;28.03;14.60;;;-2.50;99.90;;;;;;5075304;28;20203;-74
2022/01/19 05:56:57;;;;;;;22.30;13.43;;;-2.50;99.90;;;;;;5075152;28;20243;-73
2022/01/19 05:59:23;;;;;;;25.90;14.03;;;-2.50;99.90;;;;;;5074851;28;20205;-74
2022/01/19 06:01:50;;;;;;;28.73;14.50;;;-2.60;99.90;;;;;;5075057;28;20204;-74
2022/01/19 06:04:17;;;;;;;26.93;14.33;;;-2.60;99.90;;;;;;5075159;28;20199;-73
2022/01/19 06:06:44;;;;;;;24.70;14.10;;;-2.60;99.90;;;;;;5074914;28;20197;-73
2022/01/19 06:09:22;;;;;;;25.20;14.20;;;-2.60;99.90;;;;;;5074570;28;20657;-76
2022/01/19 06:11:49;;;;;;;29.00;15.07;;;-2.70;99.90;;;;;;5074892;28;20226;-73
2022/01/19 06:14:17;;;;;;;33.27;17.13;;;-2.60;99.90;;;;;;5074282;28;20659;-74
2022/01/19 06:16:45;;;;;;;34.83;20.00;;;-2.60;99.90;;;;;;5075926;28;20230;-74
2022/01/19 06:19:13;;;;;;;31.87;18.33;;;-2.60;99.90;;;;;;5076417;28;20253;-73
2022/01/19 06:21:41;;;;;;;33.20;17.57;;;-2.50;99.90;;;;;;5075169;28;20203;-73
2022/01/19 06:24:07;;;;;;;34.20;17.93;;;-2.40;99.90;;;;;;5076171;28;20198;-74
2022/01/19 06:26:35;;;;;;;51.77;25.97;;;-2.40;99.90;;;;;;5076408;28;20256;-73
2022/01/19 06:29:02;;;;;;;30.30;17.57;;;-2.40;99.90;;;;;;5075841;28;20236;-74
2022/01/19 06:31:30;;;;;;;34.20;18.30;;;-2.40;99.90;;;;;;5076639;28;20251;-73
2022/01/19 06:33:57;;;;;;;32.73;18.07;;;-2.40;99.90;;;;;;5077230;28;20204;-73
2022/01/19 06:36:24;;;;;;;35.03;17.97;;;-2.40;99.90;;;;;;5078186;28;20202;-73
2022/01/19 06:38:50;;;;;;;32.63;18.23;;;-2.50;99.90;;;;;;5076066;28;20686;-73
2022/01/19 06:41:17;;;;;;;36.70;18.47;;;-2.50;99.90;;;;;;5075193;28;20660;-75
2022/01/19 06:43:44;;;;;;;37.83;19.00;;;-2.60;99.90;;;;;;5074300;28;20264;-75
2022/01/19 06:46:10;;;;;;;36.27;18.93;;;-2.60;99.90;;;;;;5074397;28;20204;-75
2022/01/19 06:48:38;;;;;;;38.03;19.83;;;-2.60;99.90;;;;;;5074691;28;20609;-73
2022/01/19 06:51:05;;;;;;;40.93;20.53;;;-2.60;99.90;;;;;;5074682;28;20608;-73
2022/01/19 06:53:32;;;;;;;37.83;19.77;;;-2.70;99.90;;;;;;5074069;28;20325;-73
2022/01/19 06:55:58;;;;;;;33.23;18.83;;;-2.60;99.90;;;;;;5073879;28;20658;-73
2022/01/19 06:58:25;;;;;;;36.20;18.57;;;-2.70;99.90;;;;;;5074457;28;20252;-74
2022/01/19 07:00:54;;;;;;;35.23;18.40;;;-2.70;99.90;;;;;;5073793;28;20210;-74
2022/01/19 07:03:21;;;;;;;34.07;18.13;;;-2.70;99.90;;;;;;5073975;28;20199;-74
2022/01/19 07:05:49;;;;;;;36.10;18.10;;;-2.80;99.90;;;;;;5074144;28;20195;-73
2022/01/19 07:08:16;;;;;;;31.30;16.77;;;-2.70;99.90;;;;;;5073823;28;20198;-74
2022/01/19 07:10:43;;;;;;;33.37;18.30;;;-2.70;99.90;;;;;;5075553;28;20201;-74
2022/01/19 07:13:10;;;;;;;29.40;15.80;;;-2.70;99.90;;;;;;5078109;28;20293;-73
2022/01/19 07:15:40;;;;;;;34.67;17.40;;;-2.70;99.90;;;;;;5077232;28;20230;-74
2022/01/19 07:18:07;;;;;;;33.90;17.07;;;-2.60;99.90;;;;;;5078640;28;20202;-74
2022/01/19 07:20:34;;;;;;;33.10;18.13;;;-2.60;99.90;;;;;;5079035;28;20203;-73
2022/01/19 07:23:02;;;;;;;37.07;17.80;;;-2.60;99.90;;;;;;5081734;28;20562;-74
2022/01/19 07:25:29;;;;;;;32.27;17.27;;;-2.60;99.90;;;;;;5084327;28;20269;-74
2022/01/19 07:27:56;;;;;;;33.00;17.70;;;-2.60;99.90;;;;;;5084590;28;20203;-75
2022/01/19 07:30:24;;;;;;;30.17;17.67;;;-2.50;99.90;;;;;;5084871;28;20252;-73
2022/01/19 07:32:51;;;;;;;34.20;17.93;;;-2.40;99.90;;;;;;5081653;28;20232;-73
2022/01/19 07:35:19;;;;;;;44.07;19.53;;;-2.40;99.90;;;;;;5080766;28;20657;-74
2022/01/19 07:37:45;;;;;;;37.57;18.30;;;-2.40;99.90;;;;;;5082088;28;20272;-74
2022/01/19 07:40:14;;;;;;;34.63;17.50;;;-2.40;99.90;;;;;;5081066;28;20208;-75
2022/01/19 07:42:41;;;;;;;32.80;17.47;;;-2.30;99.90;;;;;;5080849;28;20199;-74
2022/01/19 07:45:08;;;;;;;35.90;18.17;;;-2.20;99.90;;;;;;5080835;28;20607;-74
2022/01/19 07:47:35;;;;;;;31.90;17.77;;;-2.20;99.90;;;;;;5081653;28;20202;-74
2022/01/19 07:50:02;;;;;;;33.90;19.10;;;-2.10;99.90;;;;;;5082107;28;20654;-74
2022/01/19 07:52:28;;;;;;;31.77;18.73;;;-2.00;99.90;;;;;;5082061;28;20224;-74
2022/01/19 07:54:55;;;;;;;38.97;19.53;;;-1.90;99.90;;;;;;5079419;28;20238;-74
2022/01/19 07:57:23;;;;;;;37.97;20.83;;;-1.80;99.90;;;;;;5078079;28;20250;-74
2022/01/19 07:59:50;;;;;;;36.17;19.53;;;-1.60;99.90;;;;;;5078305;28;20203;-75
2022/01/19 08:02:17;;;;;;;33.53;19.83;;;-1.50;99.90;;;;;;5077932;28;20254;-74
2022/01/19 08:04:44;;;;;;;39.70;19.87;;;-1.40;99.90;;;;;;5079624;28;20205;-74
2022/01/19 08:07:10;;;;;;;34.47;19.53;;;-1.30;99.90;;;;;;5079415;28;20200;-75
2022/01/19 08:09:37;;;;;;;37.43;18.67;;;-1.20;99.90;;;;;;5080596;28;20201;-74
2022/01/19 08:12:06;;;;;;;39.07;19.33;;;-1.10;99.90;;;;;;5078521;28;20197;-74
2022/01/19 08:14:34;;;;;;;31.93;18.53;;;-0.90;99.90;;;;;;5078189;28;20394;-75
2022/01/19 08:17:00;;;;;;;35.73;18.73;;;-0.80;99.90;;;;;;5077851;28;20197;-74
2022/01/19 08:19:27;;;;;;;28.87;17.57;;;-0.70;99.90;;;;;;5077791;28;20201;-75
2022/01/19 08:21:54;;;;;;;35.80;18.73;;;-0.60;99.90;;;;;;5077865;28;20601;-74
2022/01/19 08:24:20;;;;;;;39.00;18.40;;;-0.40;99.90;;;;;;5078402;28;20612;-74
2022/01/19 08:26:47;;;;;;;41.40;19.20;;;-0.30;99.90;;;;;;5078155;28;20255;-73
2022/01/19 08:29:14;;;;;;;34.33;18.53;;;-0.30;99.90;;;;;;5078029;28;20291;-73
2022/01/19 08:31:42;;;;;;;33.57;19.83;;;-0.20;99.90;;;;;;5077536;28;20197;-74
2022/01/19 08:34:09;;;;;;;36.07;19.53;;;-0.10;99.90;;;;;;5077512;28;20229;-74
2022/01/19 08:36:35;;;;;;;39.17;19.80;;;0.00;99.90;;;;;;5077535;28;20631;-74
2022/01/19 08:39:02;;;;;;;34.80;18.37;;;0.10;99.90;;;;;;5077790;28;20197;-73
2022/01/19 08:41:29;;;;;;;31.70;18.67;;;0.10;99.90;;;;;;5078914;28;20201;-74
2022/01/19 08:43:56;;;;;;;32.13;18.27;;;0.20;99.90;;;;;;5077042;28;20560;-74
2022/01/19 08:46:22;;;;;;;31.50;19.53;;;0.20;99.90;;;;;;5076892;28;20193;-74
2022/01/19 08:48:50;;;;;;;32.20;18.90;;;0.20;99.90;;;;;;5076095;28;20676;-74
2022/01/19 08:51:17;;;;;;;28.43;18.97;;;0.30;99.90;;;;;;5077300;28;20319;-74
2022/01/19 08:53:44;;;;;;;33.33;18.27;;;0.30;99.90;;;;;;5077033;28;20275;-73
2022/01/19 08:56:10;;;;;;;31.03;17.33;;;0.30;99.90;;;;;;5076995;28;20705;-74
2022/01/19 08:58:37;;;;;;;33.47;18.03;;;0.30;99.90;;;;;;5076761;28;20231;-74
2022/01/19 09:01:04;;;;;;;35.13;17.73;;;0.40;99.90;;;;;;5076387;28;20205;-74
2022/01/19 09:03:31;;;;;;;30.33;18.53;;;0.40;99.90;;;;;;5080614;28;20201;-74
2022/01/19 09:05:59;;;;;;;30.73;17.43;;;0.40;99.90;;;;;;5077628;28;20204;-73
2022/01/19 09:08:27;;;;;;;33.97;18.27;;;0.50;99.90;;;;;;5076366;28;20205;-74
2022/01/19 09:10:57;;;;;;;31.43;17.43;;;0.40;99.90;;;;;;5076121;28;20675;-74
2022/01/19 09:13:24;;;;;;;33.53;18.63;;;0.30;99.90;;;;;;5075749;28;20225;-73
2022/01/19 09:15:51;;;;;;;32.23;18.07;;;0.40;99.90;;;;;;5076363;28;20281;-73
2022/01/19 09:18:18;;;;;;;29.57;17.13;;;0.30;99.90;;;;;;5075856;28;20246;-73
2022/01/19 09:20:45;;;;;;;32.20;21.10;;;0.30;99.90;;;;;;5075628;28;20617;-73
2022/01/19 09:23:13;;;;;;;38.17;21.30;;;0.20;99.90;;;;;;5075206;28;20200;-74
2022/01/19 09:25:40;;;;;;;28.93;16.70;;;0.30;99.90;;;;;;5075764;28;20200;-73
2022/01/19 09:28:07;;;;;;;28.73;16.67;;;0.40;99.90;;;;;;5075470;28;20287;-74
2022/01/19 09:30:35;;;;;;;32.00;15.93;;;0.40;99.90;;;;;;5075752;28;20291;-74
2022/01/19 09:33:08;;;;;;;27.97;17.10;;;0.50;99.90;;;;;;5075556;28;20224;-73
2022/01/19 09:35:51;;;;;;;24.10;15.20;;;0.50;99.90;;;;;;5075198;28;20247;-74
2022/01/19 09:38:20;;;;;;;27.80;16.33;;;0.40;99.90;;;;;;5074831;28;20204;-74
2022/01/19 09:40:47;;;;;;;28.00;16.77;;;0.50;99.90;;;;;;5074789;28;20231;-73
2022/01/19 09:43:14;;;;;;;25.37;16.43;;;0.40;99.90;;;;;;5075084;28;20254;-74
2022/01/19 09:45:41;;;;;;;25.33;16.90;;;0.50;99.90;;;;;;5074174;28;20201;-73
2022/01/19 09:48:08;;;;;;;24.07;15.83;;;0.50;99.90;;;;;;5074755;28;20201;-74
2022/01/19 09:50:36;;;;;;;24.47;16.10;;;0.40;99.90;;;;;;5074756;28;20197;-74
2022/01/19 09:53:05;;;;;;;25.87;16.87;;;0.40;99.90;;;;;;5075218;28;20221;-74
2022/01/19 09:55:34;;;;;;;28.50;17.57;;;0.20;99.90;;;;;;5075491;28;20274;-74
2022/01/19 09:58:00;;;;;;;28.33;16.67;;;0.10;99.90;;;;;;5077838;28;20204;-75
2022/01/19 10:00:28;;;;;;;25.47;16.70;;;0.30;99.90;;;;;;5076739;28;20230;-73
2022/01/19 10:03:13;;;;;;;25.87;17.40;;;0.20;99.90;;;;;;5075279;28;20208;-74
2022/01/19 10:06:02;;;;;;;23.53;15.93;;;0.20;99.90;;;;;;5075361;28;20533;-74
2022/01/19 10:08:31;;;;;;;31.57;17.50;;;0.20;99.90;;;;;;5075439;28;20197;-73
2022/01/19 10:11:21;;;;;;;24.00;16.13;;;0.20;99.90;;;;;;5075220;28;20197;-74
2022/01/19 10:16:59;;;;;;;33.53;19.67;;;0.00;99.90;;;;;;5075368;28;20321;-74
2022/01/19 10:19:29;;;;;;;29.30;16.47;;;0.10;99.90;;;;;;5075713;28;20655;-74
2022/01/19 10:22:15;;;;;;;27.87;17.63;;;0.20;99.90;;;;;;5074707;28;20205;-74
2022/01/19 10:24:47;;;;;;;29.20;17.57;;;0.20;99.90;;;;;;5075431;28;20197;-73
2022/01/19 10:27:37;;;;;;;28.30;17.90;;;0.10;99.90;;;;;;5075480;28;20205;-74
2022/01/19 10:30:19;;;;;;;28.37;17.93;;;0.10;99.90;;;;;;5069312;28;20205;-74
2022/01/19 10:32:50;;;;;;;30.17;19.77;;;0.20;99.90;;;;;;5074506;28;20252;-74
2022/01/19 10:35:19;;;;;;;31.43;18.53;;;0.30;99.90;;;;;;5074765;28;20201;-74
2022/01/19 10:37:48;;;;;;;29.80;17.80;;;0.30;99.90;;;;;;5074760;28;20201;-74
2022/01/19 10:40:18;;;;;;;26.77;18.43;;;0.30;99.90;;;;;;5074645;28;20201;-74
2022/01/19 10:42:46;;;;;;;32.40;18.27;;;0.40;99.90;;;;;;5074643;28;20201;-74
2022/01/19 10:45:14;;;;;;;30.97;18.13;;;0.40;99.90;;;;;;5074846;28;20255;-74
2022/01/19 10:47:47;;;;;;;26.73;17.13;;;0.30;99.90;;;;;;5075158;28;20590;-74
2022/01/19 10:50:16;;;;;;;25.93;17.47;;;0.30;99.90;;;;;;5074949;28;20208;-74
2022/01/19 10:52:44;;;;;;;28.37;18.03;;;0.50;99.90;;;;;;5078540;28;20201;-74
2022/01/19 10:55:13;;;;;;;26.70;16.93;;;0.60;99.90;;;;;;5077057;28;20203;-75
2022/01/19 10:57:42;;;;;;;29.07;18.03;;;0.70;99.90;;;;;;5074594;28;20201;-75
2022/01/19 11:00:19;;;;;;;30.57;18.57;;;0.50;99.90;;;;;;5077171;28;20192;-74
2022/01/19 11:02:48;;;;;;;27.20;17.80;;;0.60;99.90;;;;;;5074135;28;20257;-75
2022/01/19 11:05:16;;;;;;;28.23;17.53;;;0.60;99.90;;;;;;5074188;28;20722;-74
2022/01/19 11:07:42;;;;;;;27.23;16.93;;;0.70;99.90;;;;;;5074592;28;20197;-74
2022/01/19 11:10:13;;;;;;;28.07;16.93;;;0.80;99.90;;;;;;5073866;28;20197;-74
2022/01/19 11:12:45;;;;;;;25.37;16.20;;;1.10;99.90;;;;;;5074337;28;20197;-74
2022/01/19 11:15:13;;;;;;;28.17;16.27;;;1.40;99.90;;;;;;5074015;28;20252;-74
2022/01/19 11:17:41;;;;;;;23.43;16.13;;;1.50;99.90;;;;;;5074369;28;20649;-74
2022/01/19 11:20:11;;;;;;;22.60;15.87;;;1.70;99.90;;;;;;5074308;28;20197;-74
2022/01/19 11:22:50;;;;;;;22.90;16.03;;;2.20;99.90;;;;;;5073953;28;20193;-74
2022/01/19 11:25:25;;;;;;;23.90;15.97;;;2.70;99.90;;;;;;5073867;28;20684;-74
2022/01/19 11:27:52;;;;;;;25.03;15.63;;;3.20;99.90;;;;;;5074298;28;20202;-74
2022/01/19 11:30:23;;;;;;;19.43;14.03;;;3.00;99.90;;;;;;5074420;28;20192;-74
2022/01/19 11:33:23;;;;;;;18.87;13.83;;;4.20;99.90;;;;;;5073539;28;20222;-74
2022/01/19 11:35:52;;;;;;;17.83;13.07;;;3.70;99.90;;;;;;5073397;28;20282;-74
2022/01/19 11:38:31;;;;;;;17.03;13.77;;;3.30;99.90;;;;;;5073468;28;20200;-74
2022/01/19 11:40:59;;;;;;;19.30;13.83;;;4.60;99.90;;;;;;5074142;28;20291;-74
2022/01/19 11:43:29;;;;;;;19.03;13.97;;;5.40;99.90;;;;;;5073691;28;20205;-74
2022/01/19 11:45:57;;;;;;;19.47;14.57;;;5.90;99.90;;;;;;5074138;28;20212;-74
2022/01/19 11:48:29;;;;;;;16.93;13.43;;;5.10;99.90;;;;;;5079451;28;20246;-74
2022/01/19 11:51:22;;;;;;;18.87;13.50;;;6.60;99.90;;;;;;5074628;28;20287;-75
2022/01/19 11:54:04;;;;;;;18.53;14.80;;;7.50;99.90;;;;;;5073249;28;20677;-75
2022/01/19 11:56:31;;;;;;;17.20;13.37;;;8.60;99.90;;;;;;5073618;28;20242;-74
2022/01/19 11:59:04;;;;;;;16.83;13.70;;;8.30;99.90;;;;;;5073122;28;20197;-74
2022/01/19 12:01:31;;;;;;;18.80;14.13;;;8.80;99.90;;;;;;5072677;28;20261;-75
2022/01/19 12:04:13;;;;;;;16.83;13.00;;;9.40;99.90;;;;;;5072072;28;20204;-72
2022/01/19 12:06:42;;;;;;;16.27;13.50;;;10.20;99.90;;;;;;5071939;28;20652;-72
2022/01/19 12:09:11;;;;;;;17.97;13.73;;;10.70;98.20;;;;;;5074045;28;20646;-74
2022/01/19 12:11:43;;;;;;;15.17;13.17;;;10.70;96.60;;;;;;5075772;28;20236;-74
2022/01/19 12:14:14;;;;;;;16.57;14.43;;;10.90;96.00;;;;;;5075684;28;20278;-72
2022/01/19 12:16:52;;;;;;;16.87;14.13;;;11.30;91.60;;;;;;5075762;28;20251;-74
2022/01/19 12:19:27;;;;;;;15.80;14.03;;;10.30;92.40;;;;;;5075839;28;20197;-74
2022/01/19 12:22:11;;;;;;;18.97;14.70;;;8.00;99.90;;;;;;5076549;28;20205;-74
2022/01/19 12:24:41;;;;;;;18.17;15.10;;;6.60;99.90;;;;;;5077818;28;20261;-74
2022/01/19 12:27:22;;;;;;;18.77;15.40;;;5.60;99.90;;;;;;5078600;28;20197;-74
2022/01/19 12:29:52;;;;;;;16.67;14.23;;;5.10;99.90;;;;;;5079509;28;20272;-73
2022/01/19 12:32:49;;;;;;;17.70;14.13;;;5.60;99.90;;;;;;5079640;28;20240;-74
2022/01/19 12:35:24;;;;;;;18.67;13.87;;;6.00;99.90;;;;;;5080005;28;20362;-74
2022/01/19 12:37:52;;;;;;;21.70;13.90;;;5.80;99.90;;;;;;5077380;28;20191;-74
2022/01/19 12:40:55;;;;;;;20.43;14.60;;;5.90;99.90;;;;;;5077058;28;20243;-73
2022/01/19 12:43:37;;;;;;;21.40;14.03;;;5.80;99.90;;;;;;5080191;28;20707;-73
2022/01/19 12:46:08;;;;;;;19.63;14.43;;;5.00;99.90;;;;;;5078504;28;20196;-74
2022/01/19 12:48:37;;;;;;;17.87;13.03;;;4.60;99.90;;;;;;5077151;28;20666;-73
2022/01/19 12:51:07;;;;;;;21.23;13.67;;;3.90;99.90;;;;;;5077297;28;20246;-73
2022/01/19 12:53:33;;;;;;;20.07;14.17;;;3.70;99.90;;;;;;5080729;28;20195;-73
2022/01/19 12:56:05;;;;;;;19.73;14.10;;;3.60;99.90;;;;;;5082291;28;20204;-73
2022/01/19 12:58:34;;;;;;;20.50;14.03;;;3.60;99.90;;;;;;5083545;28;20229;-73
2022/01/19 13:01:04;;;;;;;18.03;14.33;;;3.20;99.90;;;;;;5084450;28;20220;-73
2022/01/19 13:03:35;;;;;;;20.83;13.27;;;3.10;99.90;;;;;;5083686;28;20206;-73
2022/01/19 13:06:07;;;;;;;24.03;14.97;;;2.90;99.90;;;;;;5084666;28;20201;-74
2022/01/19 13:08:50;;;;;;;26.10;15.90;;;2.90;99.90;;;;;;5084664;28;20194;-74
2022/01/19 13:11:27;;;;;;;22.90;16.17;;;2.70;99.90;;;;;;5085291;28;20284;-74
2022/01/19 13:13:57;;;;;;;22.77;15.23;;;2.60;99.90;;;;;;5081257;28;20217;-73
2022/01/19 13:16:40;;;;;;;22.23;16.13;;;2.70;99.90;;;;;;5076984;28;20267;-73
2022/01/19 13:19:10;;;;;;;21.20;13.97;;;2.80;99.90;;;;;;5077264;28;20207;-74
2022/01/19 13:21:40;;;;;;;20.13;13.30;;;2.80;99.90;;;;;;5078319;28;20198;-75
2022/01/19 13:24:12;;;;;;;19.00;13.63;;;2.80;99.90;;;;;;5077431;28;20226;-74
2022/01/19 13:26:42;;;;;;;20.77;14.23;;;2.90;99.90;;;;;;5077200;28;20202;-73
2022/01/19 13:29:24;;;;;;;18.53;13.93;;;3.00;99.90;;;;;;5077414;28;20202;-74
2022/01/19 13:32:00;;;;;;;21.97;14.03;;;3.20;99.90;;;;;;5076685;28;20611;-74
2022/01/19 13:34:28;;;;;;;21.13;14.30;;;3.30;99.90;;;;;;5077008;28;20596;-74
2022/01/19 13:37:00;;;;;;;20.67;14.80;;;3.60;99.90;;;;;;5076741;28;20194;-74
2022/01/19 13:39:28;;;;;;;18.37;13.20;;;3.40;99.90;;;;;;5082068;28;20244;-73
2022/01/19 13:41:57;;;;;;;16.60;13.30;;;3.30;99.90;;;;;;5078026;28;20193;-73
2022/01/19 13:44:30;;;;;;;19.23;13.03;;;3.50;99.90;;;;;;5076723;28;20198;-73
2022/01/19 13:47:05;;;;;;;21.20;13.50;;;3.90;99.90;;;;;;5076292;28;20270;-74
2022/01/19 13:49:32;;;;;;;21.57;13.07;;;4.20;99.90;;;;;;5075959;28;20198;-74